Time;durP1;ratioP1;P1;durP2;ratioP2;P2;SDS_P1;SDS_P2;PMS_P1;PMS_P2;Temp;Humidity;BMP_temperature;BMP_pressure;BME280_temperature;BME280_humidity;BME280_pressure;Samples;Min_cycle;Max_cycle;Signal;HPM_P1;HPM_P2
2022/09/08 00:01:36;;;;;;;33.92;3.47;;;16.20;99.90;;;;;;5089720;28;20055;-83
2022/09/08 00:04:02;;;;;;;30.25;3.15;;;16.20;99.90;;;;;;5090048;28;20048;-83
2022/09/08 00:06:31;;;;;;;31.35;3.80;;;16.10;99.90;;;;;;5089253;28;20020;-84
2022/09/08 00:08:58;;;;;;;37.03;3.70;;;16.10;99.90;;;;;;5089182;28;20544;-92
2022/09/08 00:11:28;;;;;;;29.98;3.72;;;16.00;99.90;;;;;;5089179;28;20117;-84
2022/09/08 00:14:02;;;;;;;32.75;3.60;;;16.10;99.90;;;;;;5089249;28;20074;-84
2022/09/08 00:16:28;;;;;;;32.03;3.53;;;16.10;99.90;;;;;;5088987;28;20060;-83
2022/09/08 00:18:54;;;;;;;28.05;3.97;;;16.00;99.90;;;;;;5087623;28;20471;-84
2022/09/08 00:21:22;;;;;;;44.30;3.70;;;16.00;99.90;;;;;;5089175;28;20024;-86
2022/09/08 00:23:48;;;;;;;;;;;16.00;99.90;;;;;;5089732;28;20020;-92
2022/09/08 00:26:14;;;;;;;28.35;4.15;;;16.00;99.90;;;;;;5089049;28;19904;-91
2022/09/08 00:28:40;;;;;;;25.17;3.72;;;;;;;;;;5088973;28;20055;-84
2022/09/08 00:31:05;;;;;;;22.27;3.45;;;16.00;99.90;;;;;;5089951;28;20051;-83
2022/09/08 00:33:32;;;;;;;27.70;3.35;;;16.00;99.90;;;;;;5088944;28;20059;-83
2022/09/08 00:35:58;;;;;;;34.22;4.00;;;16.00;99.90;;;;;;5088883;28;20476;-83
2022/09/08 00:38:25;;;;;;;23.77;3.72;;;16.00;99.90;;;;;;5088700;28;20123;-85
2022/09/08 00:40:52;;;;;;;41.45;4.35;;;;;;;;;;5088847;28;20059;-86
2022/09/08 00:43:33;;;;;;;31.92;4.30;;;16.00;99.90;;;;;;5088805;28;20124;-92
2022/09/08 00:46:24;;;;;;;36.38;4.70;;;16.00;99.90;;;;;;5088700;28;20035;-84
2022/09/08 00:48:57;;;;;;;43.05;4.13;;;16.00;99.90;;;;;;5078008;28;20040;-83
2022/09/08 00:51:25;;;;;;;31.95;3.83;;;16.00;99.90;;;;;;5088874;28;20478;-93
2022/09/08 00:53:51;;;;;;;25.23;3.33;;;16.10;99.90;;;;;;5087445;28;20078;-92
2022/09/08 00:56:18;;;;;;;35.10;3.58;;;16.10;99.90;;;;;;5088529;28;20468;-83
2022/09/08 00:58:44;;;;;;;45.45;4.38;;;16.20;99.90;;;;;;5088669;28;20064;-83
2022/09/08 01:01:10;;;;;;;47.60;4.90;;;16.20;99.90;;;;;;5087344;28;20051;-83
2022/09/08 01:03:39;;;;;;;33.60;4.10;;;16.20;99.90;;;;;;5093147;28;20461;-83
2022/09/08 01:12:44;;;;;;;44.63;4.25;;;16.20;99.90;;;;;;5092231;28;20030;-95
2022/09/08 01:15:15;;;;;;;35.30;4.28;;;16.20;99.90;;;;;;5092289;28;20024;-84
2022/09/08 01:17:41;;;;;;;44.60;5.53;;;16.30;99.90;;;;;;5091866;28;20024;-83
2022/09/08 01:20:08;;;;;;;47.33;4.35;;;16.30;99.90;;;;;;5092790;28;20108;-84
2022/09/08 01:23:04;;;;;;;28.42;4.18;;;16.30;99.90;;;;;;5092074;28;20024;-85
2022/09/08 01:25:55;;;;;;;34.30;3.58;;;16.30;99.90;;;;;;5091993;28;20028;-95
2022/09/08 01:28:35;;;;;;;36.22;4.63;;;16.30;99.90;;;;;;5090456;28;20445;-83
2022/09/08 01:31:03;;;;;;;35.33;4.63;;;16.30;99.90;;;;;;5091736;28;20502;-83
2022/09/08 01:33:28;;;;;;;44.33;4.57;;;16.30;99.90;;;;;;5091830;28;20156;-83
2022/09/08 01:35:54;;;;;;;45.97;4.68;;;16.30;99.90;;;;;;5091626;28;20062;-84
2022/09/08 01:38:20;;;;;;;31.38;4.43;;;16.30;99.90;;;;;;5091512;28;20047;-83
2022/09/08 01:40:45;;;;;;;40.67;4.47;;;16.20;99.90;;;;;;5091572;28;20020;-83
2022/09/08 01:43:11;;;;;;;30.30;4.10;;;16.20;99.90;;;;;;5091604;28;20411;-83
2022/09/08 01:45:39;;;;;;;35.75;4.53;;;16.20;99.90;;;;;;5092275;28;20043;-84
2022/09/08 01:48:06;;;;;;;38.13;4.25;;;16.30;99.90;;;;;;5091307;28;20529;-83
2022/09/08 01:50:32;;;;;;;54.95;5.38;;;16.30;99.90;;;;;;5091461;28;20038;-83
2022/09/08 01:52:57;;;;;;;49.15;4.63;;;16.30;99.90;;;;;;5091209;28;20027;-84
2022/09/08 01:55:23;;;;;;;38.50;4.18;;;16.30;99.90;;;;;;5091229;28;20028;-93
2022/09/08 01:57:49;;;;;;;37.55;4.75;;;16.30;99.90;;;;;;5090191;28;20023;-83
2022/09/08 02:00:15;;;;;;;45.38;5.63;;;16.20;99.90;;;;;;5091083;28;20031;-83
2022/09/08 02:02:40;;;;;;;44.60;4.90;;;16.30;99.90;;;;;;5090787;28;20399;-83
2022/09/08 02:05:07;;;;;;;41.28;3.92;;;16.30;99.90;;;;;;5091410;28;20031;-84
2022/09/08 02:07:34;;;;;;;42.88;5.13;;;16.30;99.90;;;;;;5090968;28;20024;-83
2022/09/08 02:10:00;;;;;;;41.23;4.63;;;16.40;99.90;;;;;;5091494;28;20028;-93
2022/09/08 02:12:26;;;;;;;38.10;3.97;;;16.40;99.90;;;;;;5089549;28;20279;-83
2022/09/08 02:14:51;;;;;;;52.70;5.10;;;16.40;99.90;;;;;;5090970;28;20020;-83
2022/09/08 02:17:17;;;;;;;40.88;4.55;;;16.50;99.90;;;;;;5091303;28;20082;-83
2022/09/08 02:19:43;;;;;;;51.38;4.68;;;16.40;99.90;;;;;;5091152;28;20028;-83
2022/09/08 02:22:08;;;;;;;38.75;4.47;;;16.40;99.90;;;;;;5090523;28;20357;-93
2022/09/08 02:24:34;;;;;;;58.35;5.53;;;16.40;99.90;;;;;;5091526;28;20024;-83
2022/09/08 02:27:00;;;;;;;41.70;4.40;;;;;;;;;;5091190;28;20388;-83
2022/09/08 02:29:26;;;;;;;51.60;6.10;;;16.40;99.90;;;;;;5091096;28;20024;-83
2022/09/08 02:31:52;;;;;;;41.45;5.13;;;16.40;99.90;;;;;;5091798;28;20043;-85
2022/09/08 02:34:17;;;;;;;48.80;4.80;;;16.40;99.90;;;;;;5091741;28;20031;-93
2022/09/08 02:36:44;;;;;;;37.03;4.40;;;16.40;99.90;;;;;;5092242;28;20036;-83
2022/09/08 02:39:17;;;;;;;44.13;4.53;;;16.50;99.90;;;;;;5093053;28;20028;-93
2022/09/08 02:41:43;;;;;;;45.40;4.82;;;16.50;99.90;;;;;;5093944;28;20418;-93
2022/09/08 02:44:11;;;;;;;41.88;4.32;;;14.50;99.90;;;;;;5098853;28;20030;-93
2022/09/08 02:46:37;;;;;;;;;;;16.50;99.90;;;;;;5097935;28;20078;-95
2022/09/08 02:49:04;;;;;;;46.65;4.78;;;16.40;99.90;;;;;;5101497;28;19927;-95
2022/09/08 02:51:31;;;;;;;47.45;4.80;;;16.40;99.90;;;;;;5096382;28;20099;-94
2022/09/08 02:53:56;;;;;;;47.15;5.65;;;16.50;99.90;;;;;;5092619;28;20020;-93
2022/09/08 02:56:23;;;;;;;42.47;4.88;;;;;;;;;;5095622;28;20042;-94
2022/09/08 02:58:48;;;;;;;44.10;5.28;;;16.40;99.90;;;;;;5094808;28;20503;-93
2022/09/08 03:01:14;;;;;;;51.85;5.20;;;16.40;99.90;;;;;;5093917;28;20069;-85
2022/09/08 03:03:40;;;;;;;38.50;3.90;;;16.40;99.90;;;;;;5101629;28;20016;-94
2022/09/08 03:06:06;;;;;;;42.00;4.50;;;;;;;;;;5093508;28;20393;-94
2022/09/08 03:08:33;;;;;;;48.25;5.78;;;16.40;99.90;;;;;;5093426;28;20024;-95
2022/09/08 03:10:59;;;;;;;43.58;4.60;;;16.50;99.90;;;;;;5092879;28;20048;-95
2022/09/08 03:13:26;;;;;;;51.55;4.38;;;16.40;99.90;;;;;;5092476;28;20099;-83
2022/09/08 03:15:51;;;;;;;51.95;4.55;;;16.40;99.90;;;;;;5091454;28;20031;-93
2022/09/08 03:18:17;;;;;;;47.35;5.97;;;16.40;99.90;;;;;;5090707;28;20032;-83
2022/09/08 03:20:44;;;;;;;47.08;5.57;;;16.40;99.90;;;;;;5092187;28;20051;-92
2022/09/08 03:23:17;;;;;;;58.78;5.65;;;16.40;99.90;;;;;;5091205;28;20043;-93
2022/09/08 03:25:44;;;;;;;46.78;4.60;;;16.40;99.90;;;;;;5093197;28;20028;-94
2022/09/08 03:28:18;;;;;;;57.65;5.28;;;16.50;99.90;;;;;;5091804;28;20020;-90
2022/09/08 03:30:44;;;;;;;46.75;5.82;;;;;;;;;;5092225;28;20052;-86
2022/09/08 03:33:10;;;;;;;57.20;6.00;;;16.40;99.90;;;;;;5090456;28;20027;-82
2022/09/08 03:35:36;;;;;;;41.13;4.15;;;16.40;99.90;;;;;;5092696;28;20499;-82
2022/09/08 03:38:02;;;;;;;51.80;5.30;;;16.50;99.90;;;;;;5092984;28;20032;-94
2022/09/08 03:40:28;;;;;;;40.50;5.53;;;16.50;99.90;;;;;;5097568;28;20032;-94
2022/09/08 03:42:54;;;;;;;51.35;5.00;;;16.50;99.90;;;;;;5101637;28;20024;-87
2022/09/08 03:45:20;;;;;;;35.70;4.07;;;;;;;;;;5102132;28;20026;-91
2022/09/08 03:47:47;;;;;;;51.17;5.18;;;;;;;;;;5098129;28;20392;-89
2022/09/08 03:50:33;;;;;;;42.28;5.68;;;;;;;;;;5093378;28;20039;-91
2022/09/08 03:52:59;;;;;;;43.97;4.75;;;;;;;;;;5097802;28;20024;-84
2022/09/08 03:55:26;;;;;;;56.40;7.03;;;16.50;99.90;;;;;;5100560;28;20020;-84
2022/09/08 03:58:01;;;;;;;47.42;5.63;;;16.60;99.90;;;;;;5112512;28;20072;-85
2022/09/08 04:00:27;;;;;;;36.22;4.43;;;;;;;;;;5105495;28;20039;-85
2022/09/08 04:02:57;;;;;;;47.35;4.57;;;;;;;;;;5107339;28;20072;-93
2022/09/08 04:05:23;;;;;;;44.10;3.70;;;;;;;;;;5102652;28;20090;-92
2022/09/08 04:07:51;;;;;;;31.90;4.38;;;;;;;;;;5097345;28;20028;-90
2022/09/08 04:10:17;;;;;;;35.13;4.20;;;;;;;;;;5101983;28;20483;-85
2022/09/08 04:13:04;;;;;;;39.42;4.72;;;16.50;99.90;;;;;;5107759;28;20043;-92
2022/09/08 04:15:29;;;;;;;44.22;4.82;;;16.50;99.90;;;;;;5108806;28;20031;-83
2022/09/08 04:17:55;;;;;;;46.90;5.70;;;;;;;;;;5108391;28;20111;-86
2022/09/08 04:20:21;;;;;;;36.63;3.40;;;16.60;99.90;;;;;;5099420;28;20060;-89
2022/09/08 04:22:47;;;;;;;46.95;5.88;;;16.60;99.90;;;;;;5090731;28;20024;-94
2022/09/08 04:25:13;;;;;;;42.63;4.93;;;16.50;99.90;;;;;;5094622;28;20104;-94
2022/09/08 04:27:38;;;;;;;34.28;4.15;;;16.50;99.90;;;;;;5089814;28;20236;-93
2022/09/08 04:30:04;;;;;;;52.60;5.50;;;16.50;99.90;;;;;;5107928;28;20031;-84
2022/09/08 04:32:30;;;;;;;62.67;5.55;;;16.60;99.90;;;;;;5107165;28;20000;-93
2022/09/08 04:34:56;;;;;;;36.75;4.25;;;16.60;99.90;;;;;;5105290;28;20068;-89
2022/09/08 04:37:22;;;;;;;41.70;5.53;;;16.50;99.90;;;;;;5103320;28;20031;-90
2022/09/08 04:39:49;;;;;;;38.50;4.95;;;16.50;99.90;;;;;;5104192;28;20040;-90
2022/09/08 04:42:14;;;;;;;32.30;4.70;;;16.40;99.90;;;;;;5101255;28;20400;-91
2022/09/08 04:44:40;;;;;;;50.67;4.70;;;16.40;99.90;;;;;;5096232;28;20528;-92
2022/09/08 04:47:05;;;;;;;41.05;4.70;;;16.40;99.90;;;;;;5096119;28;20020;-95
2022/09/08 04:49:31;;;;;;;38.63;4.53;;;16.50;99.90;;;;;;5110065;28;20073;-91
2022/09/08 04:51:57;;;;;;;55.85;4.88;;;16.40;99.90;;;;;;5093113;28;20111;-93
2022/09/08 04:54:23;;;;;;;48.25;5.18;;;16.40;99.90;;;;;;5095838;28;20026;-91
2022/09/08 04:56:49;;;;;;;44.05;4.80;;;16.40;99.90;;;;;;5101007;28;20024;-93
2022/09/08 04:59:16;;;;;;;48.47;4.57;;;16.40;99.90;;;;;;5095464;28;20085;-90
2022/09/08 05:01:42;;;;;;;45.67;4.55;;;16.40;99.90;;;;;;5093677;28;20028;-93
2022/09/08 05:04:08;;;;;;;33.55;4.07;;;16.30;99.90;;;;;;5094254;28;20676;-82
2022/09/08 05:06:35;;;;;;;40.42;4.85;;;16.30;99.90;;;;;;5095234;28;20024;-82
2022/09/08 05:09:02;;;;;;;40.58;4.97;;;16.30;99.90;;;;;;5094232;28;20028;-89
2022/09/08 05:11:30;;;;;;;49.45;4.97;;;16.30;99.90;;;;;;5093123;28;20025;-82
2022/09/08 05:13:56;;;;;;;38.95;4.38;;;16.30;99.90;;;;;;5092908;28;20020;-92
2022/09/08 05:16:24;;;;;;;44.70;5.85;;;16.30;99.90;;;;;;5093336;28;20059;-82
2022/09/08 05:18:56;;;;;;;40.20;5.88;;;16.20;99.90;;;;;;5094100;28;20562;-92
2022/09/08 05:21:22;;;;;;;42.60;4.75;;;16.20;99.90;;;;;;5094274;28;20020;-91
2022/09/08 05:23:50;;;;;;;37.88;4.97;;;16.20;99.90;;;;;;5092556;28;20432;-83
2022/09/08 05:26:16;;;;;;;32.15;4.30;;;16.30;99.90;;;;;;5092875;28;20479;-89
2022/09/08 05:28:43;;;;;;;39.88;4.82;;;17.60;99.90;;;;;;5093051;28;20229;-82
2022/09/08 05:31:21;;;;;;;43.53;5.00;;;16.20;99.90;;;;;;5092587;28;20020;-92
2022/09/08 05:33:47;;;;;;;29.38;5.13;;;16.20;99.90;;;;;;5093024;28;20567;-93
2022/09/08 05:36:16;;;;;;;51.35;5.35;;;15.90;99.90;;;;;;5092860;28;20452;-93
2022/09/08 05:38:42;;;;;;;42.05;4.45;;;16.10;99.90;;;;;;5092537;28;20040;-91
2022/09/08 05:41:09;;;;;;;44.78;4.68;;;16.20;99.90;;;;;;5092809;28;20061;-82
2022/09/08 05:43:36;;;;;;;33.80;4.43;;;16.10;99.90;;;;;;5092016;28;20027;-83
2022/09/08 05:46:01;;;;;;;35.45;5.95;;;16.20;99.90;;;;;;5092291;28;20400;-82
2022/09/08 05:48:27;;;;;;;37.17;4.75;;;16.10;99.90;;;;;;5091067;28;20024;-89
2022/09/08 05:50:53;;;;;;;48.90;4.60;;;16.10;99.90;;;;;;5092187;28;20012;-84
2022/09/08 05:53:19;;;;;;;40.88;4.72;;;16.10;99.90;;;;;;5091973;28;20073;-82
2022/09/08 05:55:58;;;;;;;49.08;5.18;;;16.10;99.90;;;;;;5091057;28;20028;-82
2022/09/08 05:58:24;;;;;;;64.50;5.57;;;16.10;99.90;;;;;;5091947;28;20038;-82
2022/09/08 06:00:59;;;;;;;48.08;6.47;;;16.10;99.90;;;;;;5090599;28;20081;-82
2022/09/08 06:03:26;;;;;;;45.70;5.68;;;16.10;99.90;;;;;;5091277;28;20055;-84
2022/09/08 06:05:53;;;;;;;36.92;5.22;;;16.10;99.90;;;;;;5090515;28;20028;-84
2022/09/08 06:08:21;;;;;;;45.13;5.57;;;16.10;99.90;;;;;;5089660;28;20016;-84
2022/09/08 06:10:53;;;;;;;52.92;5.38;;;16.00;99.90;;;;;;5090685;28;20399;-83
2022/09/08 06:13:21;;;;;;;38.97;4.70;;;16.10;99.90;;;;;;5090929;28;20039;-83
2022/09/08 06:15:48;;;;;;;59.00;5.38;;;16.10;99.90;;;;;;5090750;28;20369;-84
2022/09/08 06:18:14;;;;;;;41.80;4.57;;;16.10;99.90;;;;;;5090773;28;20039;-84
2022/09/08 06:20:40;;;;;;;66.28;5.80;;;16.00;99.90;;;;;;5090896;28;20028;-84
2022/09/08 06:23:05;;;;;;;40.85;5.00;;;16.10;99.90;;;;;;5090567;28;20103;-84
2022/09/08 06:25:37;;;;;;;41.80;5.53;;;16.10;99.90;;;;;;5090544;28;20024;-83
2022/09/08 06:28:15;;;;;;;45.53;6.75;;;16.10;99.90;;;;;;5090652;28;20020;-84
2022/09/08 06:30:40;;;;;;;43.60;5.18;;;16.10;99.90;;;;;;5090483;28;20483;-84
2022/09/08 06:33:12;;;;;;;42.70;4.97;;;16.10;99.90;;;;;;5090394;28;20020;-84
2022/09/08 06:35:56;;;;;;;45.42;5.00;;;16.10;99.90;;;;;;5090485;28;20016;-85
2022/09/08 06:38:33;;;;;;;57.33;7.03;;;16.20;99.90;;;;;;5091131;28;20035;-84
2022/09/08 06:41:20;;;;;;;35.03;5.53;;;16.30;99.90;;;;;;5090530;28;20027;-84
2022/09/08 06:43:51;;;;;;;62.97;6.72;;;16.30;99.90;;;;;;5090457;28;20024;-84
2022/09/08 06:46:24;;;;;;;60.63;6.35;;;16.30;99.90;;;;;;5090415;28;20675;-84
2022/09/08 06:48:51;;;;;;;53.45;6.72;;;16.40;99.90;;;;;;5090274;28;20085;-84
2022/09/08 06:51:31;;;;;;;36.33;5.85;;;16.50;99.90;;;;;;5090350;28;20048;-84
2022/09/08 06:54:08;;;;;;;60.78;8.40;;;16.50;99.90;;;;;;5091284;28;20061;-83
2022/09/08 06:56:47;;;;;;;46.23;6.90;;;16.50;99.90;;;;;;5090274;28;20024;-84
2022/09/08 06:59:56;;;;;;;62.00;7.78;;;16.60;99.90;;;;;;5089273;28;20699;-83
2022/09/08 07:02:40;;;;;;;69.55;7.03;;;16.70;99.90;;;;;;5060674;28;20028;-84
2022/09/08 07:05:18;;;;;;;60.30;6.72;;;16.70;99.90;;;;;;5089903;28;20035;-85
2022/09/08 07:08:18;;;;;;;83.05;7.05;;;16.70;99.90;;;;;;5090007;28;20016;-93
2022/09/08 07:10:58;;;;;;;91.60;6.88;;;16.70;99.90;;;;;;5076556;28;20058;-93
2022/09/08 07:13:40;;;;;;;89.43;6.95;;;16.80;99.90;;;;;;5090716;28;20081;-84
2022/09/08 07:16:57;;;;;;;77.07;7.70;;;16.80;99.90;;;;;;5089720;28;20035;-84
2022/09/08 07:19:27;;;;;;;89.43;7.20;;;16.90;99.90;;;;;;5027549;28;20063;-84
2022/09/08 07:22:15;;;;;;;50.20;7.35;;;17.10;99.90;;;;;;5027652;28;20433;-84
2022/09/08 07:24:43;;;;;;;80.93;7.55;;;17.10;99.90;;;;;;5068089;28;20107;-84
2022/09/08 07:27:13;;;;;;;97.43;7.85;;;17.30;99.90;;;;;;5089499;28;20054;-84
2022/09/08 07:29:43;;;;;;;62.72;9.15;;;17.20;99.90;;;;;;5089691;28;20402;-84
2022/09/08 07:32:17;;;;;;;88.72;8.50;;;17.20;99.90;;;;;;5089548;28;20495;-85
2022/09/08 07:34:56;;;;;;;78.55;7.35;;;17.20;99.90;;;;;;5089448;28;20027;-93
2022/09/08 07:37:27;;;;;;;87.22;8.68;;;17.50;99.90;;;;;;5093686;28;20103;-88
2022/09/08 07:40:34;;;;;;;81.13;7.50;;;17.50;99.90;;;;;;5095225;28;20040;-85
2022/09/08 07:43:00;;;;;;;58.97;6.80;;;17.60;99.90;;;;;;5031577;28;20017;-85
2022/09/08 07:45:38;;;;;;;85.70;7.88;;;17.50;99.90;;;;;;5029641;28;20060;-85
2022/09/08 07:48:28;;;;;;;79.53;7.28;;;17.40;99.90;;;;;;5061697;28;20040;-84
2022/09/08 07:51:19;;;;;;;77.47;8.52;;;17.50;99.90;;;;;;5089203;28;20025;-84
2022/09/08 07:54:08;;;;;;;81.15;8.90;;;17.50;99.90;;;;;;5081912;28;20071;-84
2022/09/08 07:56:43;;;;;;;89.38;8.48;;;17.40;99.90;;;;;;5087976;28;20035;-84
2022/09/08 07:59:18;;;;;;;82.38;7.75;;;17.50;99.90;;;;;;5087868;28;20470;-85
2022/09/08 08:01:54;;;;;;;80.50;7.60;;;17.60;99.90;;;;;;5089275;28;20059;-84
2022/09/08 08:04:38;;;;;;;81.07;6.90;;;17.50;99.90;;;;;;5089250;28;20059;-85
2022/09/08 08:07:12;;;;;;;99.95;7.78;;;17.60;99.90;;;;;;5088968;28;20020;-85
2022/09/08 08:09:58;;;;;;;81.07;8.65;;;17.60;99.90;;;;;;5087735;28;20020;-85
2022/09/08 08:12:42;;;;;;;71.85;6.80;;;17.60;99.90;;;;;;5092907;28;20024;-89
2022/09/08 08:15:19;;;;;;;79.47;8.23;;;17.80;99.90;;;;;;5093328;28;20035;-85
2022/09/08 08:18:14;;;;;;;81.38;9.10;;;17.70;99.90;;;;;;5093176;28;20020;-85
2022/09/08 08:21:23;;;;;;;89.80;8.65;;;17.80;99.90;;;;;;5092997;28;20032;-85
2022/09/08 08:24:01;;;;;;;77.00;9.60;;;17.70;99.90;;;;;;5030708;28;20037;-89
2022/09/08 08:26:36;;;;;;;80.43;8.07;;;17.70;99.90;;;;;;5030608;28;20029;-85
2022/09/08 08:29:33;;;;;;;78.60;7.25;;;17.60;99.90;;;;;;5071560;28;20354;-90
2022/09/08 08:32:16;;;;;;;73.47;8.70;;;17.70;99.90;;;;;;5093688;28;20028;-89
2022/09/08 08:35:07;;;;;;;74.60;7.93;;;17.70;99.90;;;;;;5092847;28;20103;-85
2022/09/08 08:37:38;;;;;;;115.60;11.30;;;17.80;99.90;;;;;;5063788;28;20074;-85
2022/09/08 08:40:48;;;;;;;77.05;9.63;;;17.70;99.90;;;;;;5092741;28;20563;-84
2022/09/08 08:43:35;;;;;;;393.25;28.05;;;17.80;99.90;;;;;;5058409;28;20515;-90
2022/09/08 08:46:24;;;;;;;77.45;9.75;;;18.00;99.90;;;;;;5092016;28;20031;-84
2022/09/08 08:49:05;;;;;;;225.93;16.77;;;18.10;99.90;;;;;;5092644;28;20103;-90
2022/09/08 08:51:42;;;;;;;100.45;9.52;;;18.00;99.90;;;;;;5093294;28;20035;-89
2022/09/08 08:54:31;;;;;;;110.35;10.68;;;17.90;99.90;;;;;;5090922;28;20035;-84
2022/09/08 08:57:32;;;;;;;109.53;9.40;;;18.00;99.90;;;;;;5092311;28;20032;-84
2022/09/08 09:00:04;;;;;;;83.50;7.88;;;18.00;99.90;;;;;;5092201;28;20032;-84
2022/09/08 09:02:32;;;;;;;81.65;7.85;;;18.10;99.90;;;;;;5093269;28;20016;-84
2022/09/08 09:05:17;;;;;;;65.90;6.57;;;18.10;99.90;;;;;;5091162;28;20031;-85
2022/09/08 09:07:45;;;;;;;58.08;6.35;;;18.10;99.90;;;;;;5092202;28;20085;-84
2022/09/08 09:10:30;;;;;;;59.28;5.88;;;18.10;99.90;;;;;;5091073;28;20024;-92
2022/09/08 09:13:10;;;;;;;58.38;7.38;;;18.20;99.90;;;;;;5092042;28;20020;-85
2022/09/08 09:15:46;;;;;;;64.40;7.82;;;18.20;99.90;;;;;;5092340;28;20028;-85
2022/09/08 09:18:32;;;;;;;62.90;7.93;;;18.50;99.90;;;;;;5092044;28;20020;-85
2022/09/08 09:21:04;;;;;;;28.65;5.32;;;18.70;99.90;;;;;;5092090;28;20081;-84
2022/09/08 09:23:43;;;;;;;50.83;6.63;;;18.70;99.90;;;;;;5092306;28;20042;-91
2022/09/08 09:26:19;;;;;;;70.13;6.70;;;18.60;99.90;;;;;;5092030;28;20028;-85
2022/09/08 09:29:09;;;;;;;50.58;5.57;;;18.80;99.90;;;;;;5090548;28;20024;-84
2022/09/08 09:32:04;;;;;;;38.60;5.85;;;18.80;99.90;;;;;;5092848;28;20522;-84
2022/09/08 09:34:55;;;;;;;63.40;5.78;;;18.80;99.90;;;;;;5092616;28;20051;-84
2022/09/08 09:38:17;;;;;;;42.28;5.22;;;18.80;99.90;;;;;;5091525;28;20044;-84
2022/09/08 09:40:57;;;;;;;58.80;7.43;;;18.60;99.90;;;;;;5029459;28;20037;-84
2022/09/08 09:43:23;;;;;;;57.97;6.82;;;18.80;99.90;;;;;;5029509;28;20048;-84
2022/09/08 09:46:07;;;;;;;54.13;6.63;;;18.80;99.90;;;;;;5072316;28;20543;-84
2022/09/08 09:49:04;;;;;;;49.17;5.57;;;18.70;99.90;;;;;;5092622;28;20544;-84
2022/09/08 09:51:38;;;;;;;52.70;6.18;;;18.80;99.90;;;;;;5091252;28;20469;-84
2022/09/08 09:54:14;;;;;;;62.83;7.43;;;18.90;99.90;;;;;;5092318;28;20024;-85
2022/09/08 09:56:45;;;;;;;58.65;6.57;;;19.00;99.90;;;;;;5091385;28;20020;-85
2022/09/08 09:59:42;;;;;;;43.67;6.00;;;19.20;99.90;;;;;;5091265;28;20063;-92
2022/09/08 10:02:08;;;;;;;47.33;6.07;;;19.20;99.90;;;;;;5091305;28;20510;-85
2022/09/08 10:04:40;;;;;;;56.15;7.00;;;19.20;99.90;;;;;;5092086;28;20027;-94
2022/09/08 10:07:24;;;;;;;51.47;5.93;;;19.40;99.90;;;;;;5091881;28;20546;-84
2022/09/08 10:09:59;;;;;;;53.63;6.20;;;;;;;;;;5090939;28;20055;-85
2022/09/08 10:12:41;;;;;;;48.03;5.25;;;16.90;99.90;;;;;;5090872;28;20035;-84
2022/09/08 10:15:38;;;;;;;51.20;6.13;;;19.70;99.90;;;;;;5091698;28;20060;-91
2022/09/08 10:18:48;;;;;;;59.72;7.43;;;19.70;99.90;;;;;;5092019;28;20024;-83
2022/09/08 10:21:17;;;;;;;37.08;5.53;;;22.40;99.90;;;;;;5037855;28;20045;-83
2022/09/08 10:24:14;;;;;;;65.68;6.93;;;19.70;99.90;;;;;;5093647;28;20032;-84
2022/09/08 10:26:58;;;;;;;77.10;8.57;;;19.90;99.90;;;;;;5094690;28;20024;-83
2022/09/08 10:29:43;;;;;;;89.03;8.05;;;20.00;99.90;;;;;;5091003;28;20103;-83
2022/09/08 10:32:41;;;;;;;52.53;5.78;;;20.10;99.90;;;;;;5091632;28;20103;-89
2022/09/08 10:35:29;;;;;;;51.55;5.57;;;20.20;99.90;;;;;;5091296;28;20047;-84
2022/09/08 10:38:00;;;;;;;36.17;5.13;;;20.40;99.90;;;;;;5090446;28;20028;-83
2022/09/08 10:40:38;;;;;;;40.45;5.15;;;20.30;99.90;;;;;;5090539;28;20036;-83
2022/09/08 10:43:30;;;;;;;53.83;6.53;;;20.50;99.90;;;;;;5089169;28;20069;-91
2022/09/08 10:46:13;;;;;;;47.40;4.82;;;20.60;99.90;;;;;;5090579;28;20032;-83
2022/09/08 10:48:57;;;;;;;35.08;5.03;;;20.40;99.90;;;;;;5089896;28;20143;-90
2022/09/08 10:51:48;;;;;;;37.60;4.90;;;20.40;99.90;;;;;;5090577;28;20494;-90
2022/09/08 10:55:05;;;;;;;41.35;5.57;;;20.60;99.90;;;;;;5090751;28;20024;-82
2022/09/08 10:57:40;;;;;;;49.20;8.23;;;20.10;99.90;;;;;;5061477;28;20432;-83
2022/09/08 11:00:22;;;;;;;45.75;5.28;;;20.00;99.90;;;;;;5091115;28;20074;-83
2022/09/08 11:03:25;;;;;;;46.33;5.85;;;19.90;99.90;;;;;;5090452;28;20026;-82
2022/09/08 11:06:05;;;;;;;54.22;5.50;;;19.80;99.90;;;;;;5090024;28;20146;-92
2022/09/08 11:08:52;;;;;;;42.83;5.72;;;19.90;99.90;;;;;;5090442;28;20341;-83
2022/09/08 11:11:44;;;;;;;50.08;5.90;;;20.10;99.90;;;;;;5090108;28;20016;-83
2022/09/08 11:14:39;;;;;;;42.08;4.75;;;20.10;99.90;;;;;;5091147;28;20024;-82
2022/09/08 11:17:26;;;;;;;28.52;5.05;;;19.90;99.90;;;;;;5090031;28;20107;-85
2022/09/08 11:20:25;;;;;;;30.15;4.47;;;20.30;99.90;;;;;;5089765;28;20038;-92
2022/09/08 11:23:10;;;;;;;33.00;4.50;;;;;;;;;;5090126;28;20016;-90
2022/09/08 11:25:55;;;;;;;29.55;4.88;;;20.10;99.90;;;;;;5088860;28;20088;-87
2022/09/08 11:28:35;;;;;;;83.45;8.75;;;23.10;99.90;;;;;;5089954;28;20035;-91
2022/09/08 11:31:22;;;;;;;51.85;6.93;;;20.10;99.90;;;;;;5089839;28;20020;-88
2022/09/08 11:34:21;;;;;;;102.72;8.52;;;20.20;99.90;;;;;;5089929;28;20016;-83
2022/09/08 11:36:56;;;;;;;71.47;7.70;;;20.40;99.90;;;;;;5087927;28;20115;-82
2022/09/08 11:39:46;;;;;;;50.92;5.95;;;20.60;99.90;;;;;;5089682;28;20036;-83
2022/09/08 11:42:50;;;;;;;55.25;6.32;;;17.60;99.90;;;;;;5090389;28;20016;-83
2022/09/08 11:45:47;;;;;;;49.50;4.90;;;20.60;99.90;;;;;;5100827;28;20028;-83
2022/09/08 11:48:49;;;;;;;66.88;7.43;;;20.40;99.90;;;;;;5089690;28;20024;-83
2022/09/08 11:51:35;;;;;;;269.40;15.48;;;18.50;99.90;;;;;;5026998;28;20029;-83
2022/09/08 11:54:38;;;;;;;42.03;5.57;;;20.40;99.90;;;;;;5084788;28;20040;-83
2022/09/08 11:57:19;;;;;;;47.25;5.32;;;20.10;99.90;;;;;;5089217;28;20394;-85
2022/09/08 12:00:01;;;;;;;61.10;7.03;;;20.20;99.90;;;;;;5087862;28;20040;-83
2022/09/08 12:02:26;;;;;;;45.55;7.35;;;20.10;99.90;;;;;;5089266;28;20024;-83
2022/09/08 12:05:07;;;;;;;64.03;6.78;;;20.10;99.90;;;;;;5089168;28;20023;-90
2022/09/08 12:08:10;;;;;;;45.30;5.07;;;20.10;99.90;;;;;;5089292;28;20024;-85
2022/09/08 12:10:44;;;;;;;33.58;4.32;;;20.10;99.90;;;;;;5089272;28;20411;-83
2022/09/08 12:13:15;;;;;;;21.65;3.55;;;;;;;;;;5090188;28;20024;-83
2022/09/08 12:15:40;;;;;;;25.15;3.85;;;19.80;99.90;;;;;;5089862;28;20032;-82
2022/09/08 12:18:37;;;;;;;24.50;3.72;;;19.90;99.90;;;;;;5088958;28;20032;-83
2022/09/08 12:21:23;;;;;;;26.50;4.23;;;19.90;99.90;;;;;;5089087;28;20043;-82
2022/09/08 12:23:57;;;;;;;26.67;4.45;;;20.00;99.90;;;;;;5089105;28;20024;-83
2022/09/08 12:26:42;;;;;;;29.77;4.47;;;20.30;99.90;;;;;;5088789;28;20024;-82
2022/09/08 12:29:37;;;;;;;26.33;4.05;;;20.40;99.90;;;;;;5089346;28;20476;-83
2022/09/08 12:32:21;;;;;;;40.17;5.80;;;20.50;99.90;;;;;;5089119;28;20032;-90
2022/09/08 12:35:05;;;;;;;42.47;4.50;;;20.40;99.90;;;;;;5087559;28;20505;-83
2022/09/08 12:37:33;;;;;;;38.13;5.00;;;20.50;99.90;;;;;;5088905;28;20028;-91
2022/09/08 12:40:25;;;;;;;32.58;4.57;;;20.70;99.90;;;;;;5088669;28;20601;-83
2022/09/08 12:43:13;;;;;;;38.83;5.13;;;20.60;99.90;;;;;;5088872;28;20032;-83
2022/09/08 12:45:55;;;;;;;33.92;5.00;;;20.90;99.90;;;;;;5088739;28;20024;-82
2022/09/08 12:48:36;;;;;;;63.17;6.88;;;20.80;99.90;;;;;;5088708;28;20482;-83
2022/09/08 12:51:08;;;;;;;35.30;5.07;;;21.00;99.90;;;;;;5087323;28;20035;-83
2022/09/08 12:53:41;;;;;;;38.65;4.22;;;21.10;99.90;;;;;;5088697;28;20024;-82
2022/09/08 12:56:29;;;;;;;37.67;5.47;;;21.10;99.90;;;;;;5088680;28;20077;-83
2022/09/08 12:59:22;;;;;;;35.25;4.28;;;21.10;99.90;;;;;;5091608;28;20441;-83
2022/09/08 13:02:39;;;;;;;25.52;4.47;;;20.80;99.90;;;;;;5093716;28;20024;-82
2022/09/08 13:05:29;;;;;;;23.43;3.20;;;20.80;99.90;;;;;;5073415;28;20035;-83
2022/09/08 13:08:14;;;;;;;32.92;3.90;;;22.30;99.90;;;;;;5094204;28;20028;-83
2022/09/08 13:10:44;;;;;;;34.60;4.38;;;20.70;99.90;;;;;;5093754;28;20441;-89
2022/09/08 13:13:34;;;;;;;24.02;4.10;;;21.00;99.90;;;;;;5092692;28;20020;-92
2022/09/08 13:16:08;;;;;;;24.67;3.70;;;20.90;99.90;;;;;;5091862;28;20028;-83
2022/09/08 13:18:40;;;;;;;63.47;6.50;;;21.00;99.90;;;;;;5091924;28;20541;-83
2022/09/08 13:21:32;;;;;;;34.78;4.50;;;21.10;99.90;;;;;;5091078;28;20047;-86
2022/09/08 13:24:11;;;;;;;30.00;4.25;;;;;;;;;;5091913;28;20515;-82
2022/09/08 13:27:07;;;;;;;37.95;4.50;;;20.90;99.90;;;;;;5091655;28;20487;-82
2022/09/08 13:30:02;;;;;;;39.80;3.95;;;20.90;99.90;;;;;;5065256;28;20032;-92
2022/09/08 13:32:47;;;;;;;32.40;3.65;;;20.80;99.90;;;;;;5091838;28;20103;-83
2022/09/08 13:35:46;;;;;;;30.50;3.70;;;20.80;99.90;;;;;;5090466;28;20365;-82